Talisheek, Louisiana
Current Conditions -  °F | °C
As of 5:53 AM on Thursday 27 Nov 2014 (Local Time) from KASD Reporting Station
Clear Clear  
Wind Chill: 42°   Ceiling: Unl
Heat Index: 42°   Visibility: 10mi
Dew Point: 37°   Wind: 0mph
Humidity: 82%   Direction: NA
Pressure: 30.36"   Gusts: NA
Location:  30.53°N, 89.88°W
Report Text: KASD 271153Z AUTO 00000KT 10SM CLR 06/03 A3036 RMK AO2 SLP281 T00560028 10133 20050 53016
Loading
Personal Weather Stations






























Interactive Weather Map New forecast layout! Learn more

10-Day Weather Forecast

Advertisements
Track Severe Weather on mobile